sensor_id;sensor_type;location;lat;lon;timestamp;pressure;altitude;pressure_sealevel;temperature;humidity
24858;BME280;12935;50.782;6.074;2023-01-29T00:01:38;100851.09;;;-1.52;100.00
24858;BME280;12935;50.782;6.074;2023-01-29T00:04:04;100850.31;;;-1.52;100.00
24858;BME280;12935;50.782;6.074;2023-01-29T00:06:29;100853.22;;;-1.49;100.00
24858;BME280;12935;50.782;6.074;2023-01-29T00:08:55;100849.91;;;-1.35;100.00
24858;BME280;12935;50.782;6.074;2023-01-29T00:11:20;100847.78;;;-1.38;100.00
24858;BME280;12935;50.782;6.074;2023-01-29T00:13:46;100855.34;;;-1.46;100.00
24858;BME280;12935;50.782;6.074;2023-01-29T00:16:12;100841.09;;;-1.41;100.00
24858;BME280;12935;50.782;6.074;2023-01-29T00:18:38;100830.31;;;-1.31;100.00
24858;BME280;12935;50.782;6.074;2023-01-29T00:21:09;100828.94;;;-1.28;100.00
24858;BME280;12935;50.782;6.074;2023-01-29T00:23:34;100828.66;;;-1.27;100.00
24858;BME280;12935;50.782;6.074;2023-01-29T00:26:00;100821.09;;;-1.25;100.00
24858;BME280;12935;50.782;6.074;2023-01-29T00:28:25;100829.16;;;-1.25;100.00
24858;BME280;12935;50.782;6.074;2023-01-29T00:30:50;100832.72;;;-1.34;100.00
24858;BME280;12935;50.782;6.074;2023-01-29T00:33:15;100823.94;;;-1.40;100.00
24858;BME280;12935;50.782;6.074;2023-01-29T00:35:41;100815.34;;;-1.71;100.00
24858;BME280;12935;50.782;6.074;2023-01-29T00:38:06;100812.66;;;-1.71;100.00
24858;BME280;12935;50.782;6.074;2023-01-29T00:40:32;100816.31;;;-1.91;100.00
24858;BME280;12935;50.782;6.074;2023-01-29T00:43:20;100803.34;;;-1.79;100.00
24858;BME280;12935;50.782;6.074;2023-01-29T00:46:04;100808.88;;;-1.65;100.00
24858;BME280;12935;50.782;6.074;2023-01-29T00:48:30;100810.13;;;-1.57;100.00
24858;BME280;12935;50.782;6.074;2023-01-29T00:50:56;100801.75;;;-1.46;100.00
24858;BME280;12935;50.782;6.074;2023-01-29T00:53:21;100799.53;;;-1.38;100.00
24858;BME280;12935;50.782;6.074;2023-01-29T00:55:46;100803.94;;;-1.53;100.00
24858;BME280;12935;50.782;6.074;2023-01-29T00:58:11;100804.78;;;-1.57;100.00
24858;BME280;12935;50.782;6.074;2023-01-29T01:00:37;100809.16;;;-1.66;100.00
24858;BME280;12935;50.782;6.074;2023-01-29T01:03:02;100798.06;;;-1.55;100.00
24858;BME280;12935;50.782;6.074;2023-01-29T01:05:30;100796.31;;;-1.41;100.00
24858;BME280;12935;50.782;6.074;2023-01-29T01:07:57;100795.91;;;-1.53;100.00
24858;BME280;12935;50.782;6.074;2023-01-29T01:10:25;100788.94;;;-1.88;100.00
24858;BME280;12935;50.782;6.074;2023-01-29T01:12:56;100791.13;;;-1.90;100.00
24858;BME280;12935;50.782;6.074;2023-01-29T01:15:25;100787.75;;;-2.05;100.00
24858;BME280;12935;50.782;6.074;2023-01-29T01:17:56;100789.03;;;-2.03;100.00
24858;BME280;12935;50.782;6.074;2023-01-29T01:20:23;100791.06;;;-1.85;100.00
24858;BME280;12935;50.782;6.074;2023-01-29T01:22:48;100784.72;;;-1.94;100.00
24858;BME280;12935;50.782;6.074;2023-01-29T01:25:14;100791.16;;;-2.00;100.00
24858;BME280;12935;50.782;6.074;2023-01-29T01:27:39;100802.44;;;-2.03;100.00
24858;BME280;12935;50.782;6.074;2023-01-29T01:30:11;100809.72;;;-2.08;100.00
24858;BME280;12935;50.782;6.074;2023-01-29T01:32:37;100799.63;;;-2.22;100.00
24858;BME280;12935;50.782;6.074;2023-01-29T01:35:02;100807.75;;;-1.98;100.00
24858;BME280;12935;50.782;6.074;2023-01-29T01:37:27;100806.69;;;-1.97;100.00
24858;BME280;12935;50.782;6.074;2023-01-29T01:39:53;100810.41;;;-1.93;100.00
24858;BME280;12935;50.782;6.074;2023-01-29T01:42:31;100771.41;;;-2.09;100.00
24858;BME280;12935;50.782;6.074;2023-01-29T01:45:02;100807.91;;;-1.79;100.00
24858;BME280;12935;50.782;6.074;2023-01-29T01:47:41;100802.72;;;-1.65;100.00
24858;BME280;12935;50.782;6.074;2023-01-29T01:50:14;100795.50;;;-1.70;100.00
24858;BME280;12935;50.782;6.074;2023-01-29T01:52:44;100792.88;;;-1.75;100.00
24858;BME280;12935;50.782;6.074;2023-01-29T01:55:13;100789.34;;;-1.70;100.00
24858;BME280;12935;50.782;6.074;2023-01-29T01:57:42;100787.44;;;-1.65;100.00
24858;BME280;12935;50.782;6.074;2023-01-29T02:00:13;100772.44;;;-1.66;100.00
24858;BME280;12935;50.782;6.074;2023-01-29T02:02:41;100781.41;;;-1.86;100.00
24858;BME280;12935;50.782;6.074;2023-01-29T02:05:26;100786.75;;;-1.81;100.00
24858;BME280;12935;50.782;6.074;2023-01-29T02:08:12;100776.59;;;-1.84;100.00
24858;BME280;12935;50.782;6.074;2023-01-29T02:10:57;100786.22;;;-1.83;100.00
24858;BME280;12935;50.782;6.074;2023-01-29T02:13:22;100790.69;;;-1.73;100.00
24858;BME280;12935;50.782;6.074;2023-01-29T02:15:48;100793.38;;;-1.73;100.00
24858;BME280;12935;50.782;6.074;2023-01-29T02:18:15;100801.38;;;-1.68;100.00
24858;BME280;12935;50.782;6.074;2023-01-29T02:20:48;100787.97;;;-1.68;100.00
24858;BME280;12935;50.782;6.074;2023-01-29T02:26:19;100782.78;;;-1.88;100.00
24858;BME280;12935;50.782;6.074;2023-01-29T02:28:55;100783.97;;;-2.04;100.00
24858;BME280;12935;50.782;6.074;2023-01-29T02:31:50;100783.69;;;-2.03;100.00
24858;BME280;12935;50.782;6.074;2023-01-29T02:37:01;100789.50;;;-1.91;100.00
24858;BME280;12935;50.782;6.074;2023-01-29T02:39:37;100788.66;;;-1.86;100.00
24858;BME280;12935;50.782;6.074;2023-01-29T02:42:23;100784.06;;;-1.81;100.00
24858;BME280;12935;50.782;6.074;2023-01-29T02:44:59;100794.50;;;-1.79;100.00
24858;BME280;12935;50.782;6.074;2023-01-29T02:47:35;100797.03;;;-1.93;100.00
24858;BME280;12935;50.782;6.074;2023-01-29T02:52:39;100816.72;;;-2.18;100.00
24858;BME280;12935;50.782;6.074;2023-01-29T02:55:37;100828.41;;;-2.03;100.00
24858;BME280;12935;50.782;6.074;2023-01-29T03:01:27;100833.47;;;-1.97;100.00
24858;BME280;12935;50.782;6.074;2023-01-29T03:03:59;100838.00;;;-1.92;100.00
24858;BME280;12935;50.782;6.074;2023-01-29T03:06:31;100833.91;;;-1.85;100.00
24858;BME280;12935;50.782;6.074;2023-01-29T03:08:59;100836.31;;;-1.78;100.00
24858;BME280;12935;50.782;6.074;2023-01-29T03:11:33;100833.56;;;-1.73;100.00
24858;BME280;12935;50.782;6.074;2023-01-29T03:14:03;100835.97;;;-1.71;100.00
24858;BME280;12935;50.782;6.074;2023-01-29T03:16:34;100830.38;;;-1.75;100.00
24858;BME280;12935;50.782;6.074;2023-01-29T03:19:09;100832.22;;;-1.70;100.00
24858;BME280;12935;50.782;6.074;2023-01-29T03:21:49;100831.19;;;-1.74;100.00
24858;BME280;12935;50.782;6.074;2023-01-29T03:24:25;100832.28;;;-1.75;100.00
24858;BME280;12935;50.782;6.074;2023-01-29T03:27:12;100828.69;;;-1.66;100.00
24858;BME280;12935;50.782;6.074;2023-01-29T03:29:59;100822.81;;;-1.68;100.00
24858;BME280;12935;50.782;6.074;2023-01-29T03:32:45;100813.72;;;-1.72;100.00
24858;BME280;12935;50.782;6.074;2023-01-29T03:35:13;100812.94;;;-1.72;100.00
24858;BME280;12935;50.782;6.074;2023-01-29T03:37:57;100811.84;;;-1.71;100.00
24858;BME280;12935;50.782;6.074;2023-01-29T03:40:24;100811.91;;;-1.77;100.00
24858;BME280;12935;50.782;6.074;2023-01-29T03:43:08;100809.50;;;-1.78;100.00
24858;BME280;12935;50.782;6.074;2023-01-29T03:45:46;100814.34;;;-1.80;100.00
24858;BME280;12935;50.782;6.074;2023-01-29T03:48:42;100813.63;;;-1.91;100.00
24858;BME280;12935;50.782;6.074;2023-01-29T03:57:02;100813.13;;;-2.03;100.00
24858;BME280;12935;50.782;6.074;2023-01-29T03:59:38;100814.47;;;-2.00;100.00
24858;BME280;12935;50.782;6.074;2023-01-29T04:02:21;100817.28;;;-2.21;100.00
24858;BME280;12935;50.782;6.074;2023-01-29T04:04:55;100817.06;;;-2.29;100.00
24858;BME280;12935;50.782;6.074;2023-01-29T04:07:21;100818.31;;;-2.17;100.00
24858;BME280;12935;50.782;6.074;2023-01-29T04:10:13;100814.22;;;-2.04;100.00
24858;BME280;12935;50.782;6.074;2023-01-29T04:12:45;100806.19;;;-2.04;100.00
24858;BME280;12935;50.782;6.074;2023-01-29T04:15:14;100805.84;;;-1.92;100.00
24858;BME280;12935;50.782;6.074;2023-01-29T04:17:42;100797.88;;;-2.02;100.00
24858;BME280;12935;50.782;6.074;2023-01-29T04:20:10;100798.72;;;-2.07;100.00
24858;BME280;12935;50.782;6.074;2023-01-29T04:22:37;100792.56;;;-2.07;100.00
24858;BME280;12935;50.782;6.074;2023-01-29T04:25:07;100792.53;;;-2.02;100.00
24858;BME280;12935;50.782;6.074;2023-01-29T04:30:34;100788.38;;;-1.85;100.00
24858;BME280;12935;50.782;6.074;2023-01-29T04:38:45;100767.84;;;-1.94;100.00
24858;BME280;12935;50.782;6.074;2023-01-29T04:47:05;100763.59;;;-2.00;100.00
24858;BME280;12935;50.782;6.074;2023-01-29T04:49:55;100762.38;;;-2.18;100.00
24858;BME280;12935;50.782;6.074;2023-01-29T04:55:05;100748.69;;;-2.17;100.00
24858;BME280;12935;50.782;6.074;2023-01-29T04:57:43;100752.53;;;-2.28;100.00
24858;BME280;12935;50.782;6.074;2023-01-29T05:00:41;100752.34;;;-2.41;100.00
24858;BME280;12935;50.782;6.074;2023-01-29T05:03:08;100750.41;;;-2.36;100.00
24858;BME280;12935;50.782;6.074;2023-01-29T05:05:36;100749.81;;;-2.23;100.00
24858;BME280;12935;50.782;6.074;2023-01-29T05:08:04;100761.25;;;-2.12;100.00
24858;BME280;12935;50.782;6.074;2023-01-29T05:10:30;100763.44;;;-2.19;100.00
24858;BME280;12935;50.782;6.074;2023-01-29T05:12:59;100754.59;;;-2.15;100.00
24858;BME280;12935;50.782;6.074;2023-01-29T05:15:34;100745.50;;;-2.19;100.00
24858;BME280;12935;50.782;6.074;2023-01-29T05:18:01;100744.78;;;-2.29;100.00
24858;BME280;12935;50.782;6.074;2023-01-29T05:20:31;100755.94;;;-2.17;100.00
24858;BME280;12935;50.782;6.074;2023-01-29T05:22:57;100761.25;;;-2.07;100.00
24858;BME280;12935;50.782;6.074;2023-01-29T05:25:25;100746.19;;;-2.03;100.00
24858;BME280;12935;50.782;6.074;2023-01-29T05:27:52;100746.97;;;-1.97;100.00
24858;BME280;12935;50.782;6.074;2023-01-29T05:30:32;100752.81;;;-1.90;100.00
24858;BME280;12935;50.782;6.074;2023-01-29T05:32:58;100742.69;;;-1.98;100.00
24858;BME280;12935;50.782;6.074;2023-01-29T05:35:23;100743.88;;;-2.15;100.00
24858;BME280;12935;50.782;6.074;2023-01-29T05:37:48;100750.09;;;-2.24;100.00
24858;BME280;12935;50.782;6.074;2023-01-29T05:40:14;100755.41;;;-2.19;100.00
24858;BME280;12935;50.782;6.074;2023-01-29T05:42:39;100754.19;;;-2.37;100.00
24858;BME280;12935;50.782;6.074;2023-01-29T05:45:05;100751.72;;;-2.23;100.00
24858;BME280;12935;50.782;6.074;2023-01-29T05:47:30;100753.88;;;-2.30;100.00
24858;BME280;12935;50.782;6.074;2023-01-29T05:49:56;100744.16;;;-2.16;100.00
24858;BME280;12935;50.782;6.074;2023-01-29T05:52:21;100744.91;;;-2.10;100.00
24858;BME280;12935;50.782;6.074;2023-01-29T05:54:46;100747.03;;;-2.07;100.00
24858;BME280;12935;50.782;6.074;2023-01-29T05:57:13;100751.53;;;-1.98;100.00
24858;BME280;12935;50.782;6.074;2023-01-29T05:59:39;100751.72;;;-2.28;100.00
24858;BME280;12935;50.782;6.074;2023-01-29T06:02:04;100752.69;;;-2.14;100.00
24858;BME280;12935;50.782;6.074;2023-01-29T06:04:29;100748.59;;;-2.01;100.00
24858;BME280;12935;50.782;6.074;2023-01-29T06:06:54;100741.84;;;-1.94;100.00
24858;BME280;12935;50.782;6.074;2023-01-29T06:09:20;100744.84;;;-2.00;100.00
24858;BME280;12935;50.782;6.074;2023-01-29T06:11:45;100749.72;;;-2.07;100.00
24858;BME280;12935;50.782;6.074;2023-01-29T06:14:10;100756.31;;;-1.95;100.00
24858;BME280;12935;50.782;6.074;2023-01-29T06:16:35;100740.97;;;-1.84;100.00
24858;BME280;12935;50.782;6.074;2023-01-29T06:19:01;100738.53;;;-1.81;100.00
24858;BME280;12935;50.782;6.074;2023-01-29T06:21:26;100735.28;;;-1.78;100.00
24858;BME280;12935;50.782;6.074;2023-01-29T06:23:52;100727.41;;;-1.64;100.00
24858;BME280;12935;50.782;6.074;2023-01-29T06:26:17;100720.63;;;-1.56;100.00
24858;BME280;12935;50.782;6.074;2023-01-29T06:28:43;100719.50;;;-1.50;100.00
24858;BME280;12935;50.782;6.074;2023-01-29T06:31:10;100733.56;;;-1.63;100.00
24858;BME280;12935;50.782;6.074;2023-01-29T06:33:35;100737.50;;;-1.56;100.00
24858;BME280;12935;50.782;6.074;2023-01-29T06:36:03;100746.69;;;-1.62;100.00
24858;BME280;12935;50.782;6.074;2023-01-29T06:38:29;100764.63;;;-1.96;100.00
24858;BME280;12935;50.782;6.074;2023-01-29T06:40:55;100777.38;;;-1.83;100.00
24858;BME280;12935;50.782;6.074;2023-01-29T06:43:21;100781.75;;;-1.58;100.00
24858;BME280;12935;50.782;6.074;2023-01-29T06:45:52;100783.13;;;-1.61;100.00
24858;BME280;12935;50.782;6.074;2023-01-29T06:48:18;100792.13;;;-1.52;100.00
24858;BME280;12935;50.782;6.074;2023-01-29T06:50:44;100795.03;;;-1.77;100.00
24858;BME280;12935;50.782;6.074;2023-01-29T06:53:10;100796.97;;;-1.54;100.00
24858;BME280;12935;50.782;6.074;2023-01-29T06:55:35;100816.63;;;-1.63;100.00
24858;BME280;12935;50.782;6.074;2023-01-29T06:58:09;100814.09;;;-1.84;100.00
24858;BME280;12935;50.782;6.074;2023-01-29T07:00:34;100813.50;;;-1.75;100.00
24858;BME280;12935;50.782;6.074;2023-01-29T07:03:00;100807.53;;;-1.67;100.00
24858;BME280;12935;50.782;6.074;2023-01-29T07:05:26;100808.06;;;-1.65;100.00
24858;BME280;12935;50.782;6.074;2023-01-29T07:07:51;100806.25;;;-1.41;100.00
24858;BME280;12935;50.782;6.074;2023-01-29T07:10:17;100808.28;;;-1.28;100.00
24858;BME280;12935;50.782;6.074;2023-01-29T07:12:42;100810.59;;;-1.16;100.00
24858;BME280;12935;50.782;6.074;2023-01-29T07:15:08;100806.59;;;-1.19;100.00
24858;BME280;12935;50.782;6.074;2023-01-29T07:17:33;100803.88;;;-1.14;100.00
24858;BME280;12935;50.782;6.074;2023-01-29T07:19:58;100810.72;;;-1.31;100.00
24858;BME280;12935;50.782;6.074;2023-01-29T07:22:23;100799.09;;;-1.22;100.00
24858;BME280;12935;50.782;6.074;2023-01-29T07:24:49;100777.31;;;-1.15;100.00
24858;BME280;12935;50.782;6.074;2023-01-29T07:27:14;100758.00;;;-1.12;100.00
24858;BME280;12935;50.782;6.074;2023-01-29T07:29:39;100764.34;;;-1.08;100.00
24858;BME280;12935;50.782;6.074;2023-01-29T07:32:05;100763.56;;;-1.09;100.00
24858;BME280;12935;50.782;6.074;2023-01-29T07:34:30;100757.88;;;-1.02;100.00
24858;BME280;12935;50.782;6.074;2023-01-29T07:36:55;100760.72;;;-1.17;100.00
24858;BME280;12935;50.782;6.074;2023-01-29T07:39:21;100763.28;;;-1.31;100.00
24858;BME280;12935;50.782;6.074;2023-01-29T07:41:46;100768.91;;;-1.32;100.00
24858;BME280;12935;50.782;6.074;2023-01-29T07:44:12;100767.19;;;-1.47;100.00
24858;BME280;12935;50.782;6.074;2023-01-29T07:46:37;100772.53;;;-1.47;100.00
24858;BME280;12935;50.782;6.074;2023-01-29T07:49:02;100767.84;;;-1.60;100.00
24858;BME280;12935;50.782;6.074;2023-01-29T07:51:28;100759.97;;;-1.23;100.00
24858;BME280;12935;50.782;6.074;2023-01-29T07:53:53;100762.06;;;-1.20;100.00
24858;BME280;12935;50.782;6.074;2023-01-29T07:56:18;100761.78;;;-1.18;100.00
24858;BME280;12935;50.782;6.074;2023-01-29T07:58:43;100777.19;;;-1.29;100.00
24858;BME280;12935;50.782;6.074;2023-01-29T08:01:09;100779.44;;;-1.12;100.00
24858;BME280;12935;50.782;6.074;2023-01-29T08:03:35;100786.88;;;-0.80;100.00
24858;BME280;12935;50.782;6.074;2023-01-29T08:06:02;100787.53;;;-0.69;100.00
24858;BME280;12935;50.782;6.074;2023-01-29T08:08:27;100785.72;;;-0.98;100.00
24858;BME280;12935;50.782;6.074;2023-01-29T08:10:53;100785.88;;;-1.13;100.00
24858;BME280;12935;50.782;6.074;2023-01-29T08:13:18;100786.63;;;-1.08;100.00
24858;BME280;12935;50.782;6.074;2023-01-29T08:15:44;100776.56;;;-1.21;100.00
24858;BME280;12935;50.782;6.074;2023-01-29T08:18:09;100769.84;;;-0.94;100.00
24858;BME280;12935;50.782;6.074;2023-01-29T08:20:35;100768.47;;;-0.68;100.00
24858;BME280;12935;50.782;6.074;2023-01-29T08:23:02;100768.34;;;-0.58;100.00
24858;BME280;12935;50.782;6.074;2023-01-29T08:25:28;100783.53;;;-0.48;100.00
24858;BME280;12935;50.782;6.074;2023-01-29T08:27:58;100775.34;;;-0.38;100.00
24858;BME280;12935;50.782;6.074;2023-01-29T08:30:28;100775.97;;;-0.27;100.00
24858;BME280;12935;50.782;6.074;2023-01-29T08:32:54;100765.47;;;-0.24;100.00
24858;BME280;12935;50.782;6.074;2023-01-29T08:35:19;100754.44;;;-0.22;100.00
24858;BME280;12935;50.782;6.074;2023-01-29T08:37:55;100762.78;;;-0.24;100.00
24858;BME280;12935;50.782;6.074;2023-01-29T08:40:22;100766.41;;;-0.15;100.00
24858;BME280;12935;50.782;6.074;2023-01-29T08:42:48;100773.38;;;-0.14;100.00
24858;BME280;12935;50.782;6.074;2023-01-29T08:45:13;100778.75;;;-0.14;100.00
24858;BME280;12935;50.782;6.074;2023-01-29T08:47:44;100780.63;;;-0.14;100.00
24858;BME280;12935;50.782;6.074;2023-01-29T08:50:10;100780.03;;;-0.11;100.00
24858;BME280;12935;50.782;6.074;2023-01-29T08:52:35;100771.56;;;-0.18;100.00
24858;BME280;12935;50.782;6.074;2023-01-29T08:55:00;100783.25;;;-0.28;100.00
24858;BME280;12935;50.782;6.074;2023-01-29T08:57:26;100790.38;;;-0.18;100.00
24858;BME280;12935;50.782;6.074;2023-01-29T08:59:51;100780.50;;;-0.23;100.00
24858;BME280;12935;50.782;6.074;2023-01-29T09:02:16;100777.06;;;-0.10;100.00
24858;BME280;12935;50.782;6.074;2023-01-29T09:04:41;100772.22;;;-0.08;100.00
24858;BME280;12935;50.782;6.074;2023-01-29T09:07:07;100772.66;;;-0.01;100.00
24858;BME280;12935;50.782;6.074;2023-01-29T09:09:32;100765.41;;;0.00;100.00
24858;BME280;12935;50.782;6.074;2023-01-29T09:11:57;100766.94;;;0.20;100.00
24858;BME280;12935;50.782;6.074;2023-01-29T09:14:22;100770.38;;;0.07;100.00
24858;BME280;12935;50.782;6.074;2023-01-29T09:16:48;100763.91;;;0.08;100.00
24858;BME280;12935;50.782;6.074;2023-01-29T09:19:13;100755.53;;;0.28;100.00
24858;BME280;12935;50.782;6.074;2023-01-29T09:21:39;100748.13;;;0.20;100.00
24858;BME280;12935;50.782;6.074;2023-01-29T09:24:04;100750.56;;;0.35;100.00
24858;BME280;12935;50.782;6.074;2023-01-29T09:26:30;100741.84;;;0.11;100.00
24858;BME280;12935;50.782;6.074;2023-01-29T09:28:55;100740.03;;;0.06;100.00
24858;BME280;12935;50.782;6.074;2023-01-29T09:31:20;100744.94;;;0.18;100.00
24858;BME280;12935;50.782;6.074;2023-01-29T09:33:45;100740.09;;;0.33;100.00
24858;BME280;12935;50.782;6.074;2023-01-29T09:36:11;100753.06;;;0.31;100.00
24858;BME280;12935;50.782;6.074;2023-01-29T09:38:36;100750.72;;;0.44;100.00
24858;BME280;12935;50.782;6.074;2023-01-29T09:41:24;100753.53;;;0.66;100.00
24858;BME280;12935;50.782;6.074;2023-01-29T09:44:00;100746.16;;;0.58;100.00
24858;BME280;12935;50.782;6.074;2023-01-29T09:46:39;100743.94;;;0.46;100.00
24858;BME280;12935;50.782;6.074;2023-01-29T09:49:25;100745.09;;;0.26;100.00
24858;BME280;12935;50.782;6.074;2023-01-29T09:51:56;100735.63;;;-0.04;100.00
24858;BME280;12935;50.782;6.074;2023-01-29T09:57:32;100728.75;;;0.23;100.00
24858;BME280;12935;50.782;6.074;2023-01-29T09:59:58;100733.47;;;0.45;100.00
24858;BME280;12935;50.782;6.074;2023-01-29T10:02:42;100726.41;;;0.16;100.00
24858;BME280;12935;50.782;6.074;2023-01-29T10:11:10;100712.63;;;0.23;100.00
24858;BME280;12935;50.782;6.074;2023-01-29T10:13:47;100725.41;;;0.45;100.00
24858;BME280;12935;50.782;6.074;2023-01-29T10:16:53;100717.22;;;0.36;100.00
24858;BME280;12935;50.782;6.074;2023-01-29T10:23:03;100706.50;;;0.50;100.00
24858;BME280;12935;50.782;6.074;2023-01-29T10:25:32;100710.41;;;0.57;100.00
24858;BME280;12935;50.782;6.074;2023-01-29T10:28:00;100694.28;;;0.71;100.00
24858;BME280;12935;50.782;6.074;2023-01-29T10:30:36;100694.84;;;0.95;100.00
24858;BME280;12935;50.782;6.074;2023-01-29T10:33:04;100699.16;;;1.10;100.00
24858;BME280;12935;50.782;6.074;2023-01-29T10:35:37;100695.84;;;1.13;100.00
24858;BME280;12935;50.782;6.074;2023-01-29T10:38:44;100686.59;;;0.92;100.00
24858;BME280;12935;50.782;6.074;2023-01-29T10:44:00;100677.28;;;1.25;100.00
24858;BME280;12935;50.782;6.074;2023-01-29T10:47:22;100672.50;;;1.22;100.00
24858;BME280;12935;50.782;6.074;2023-01-29T10:51:57;100673.00;;;1.11;100.00
24858;BME280;12935;50.782;6.074;2023-01-29T10:55:11;100673.91;;;1.20;100.00
24858;BME280;12935;50.782;6.074;2023-01-29T11:00:34;100678.47;;;1.69;100.00
24858;BME280;12935;50.782;6.074;2023-01-29T11:03:12;100673.69;;;1.88;100.00
24858;BME280;12935;50.782;6.074;2023-01-29T11:06:22;100683.53;;;1.93;100.00
24858;BME280;12935;50.782;6.074;2023-01-29T11:11:51;100660.53;;;1.15;100.00
24858;BME280;12935;50.782;6.074;2023-01-29T11:14:24;100655.28;;;1.10;100.00
24858;BME280;12935;50.782;6.074;2023-01-29T11:16:51;100663.53;;;1.13;100.00
24858;BME280;12935;50.782;6.074;2023-01-29T11:19:17;100657.28;;;1.04;100.00
24858;BME280;12935;50.782;6.074;2023-01-29T11:21:51;100657.66;;;1.25;100.00
24858;BME280;12935;50.782;6.074;2023-01-29T11:24:17;100651.69;;;1.50;100.00
24858;BME280;12935;50.782;6.074;2023-01-29T11:26:45;100649.06;;;1.23;100.00
24858;BME280;12935;50.782;6.074;2023-01-29T11:29:31;100644.91;;;1.17;100.00
24858;BME280;12935;50.782;6.074;2023-01-29T11:31:59;100652.41;;;1.06;100.00
24858;BME280;12935;50.782;6.074;2023-01-29T11:34:25;100640.31;;;1.17;100.00
24858;BME280;12935;50.782;6.074;2023-01-29T11:39:26;100638.00;;;1.24;100.00
24858;BME280;12935;50.782;6.074;2023-01-29T11:41:55;100632.72;;;1.19;100.00
24858;BME280;12935;50.782;6.074;2023-01-29T11:44:33;100632.09;;;1.36;100.00
24858;BME280;12935;50.782;6.074;2023-01-29T11:49:43;100636.91;;;1.12;100.00
24858;BME280;12935;50.782;6.074;2023-01-29T11:52:11;100631.41;;;1.30;100.00
24858;BME280;12935;50.782;6.074;2023-01-29T11:54:44;100627.88;;;1.66;100.00
24858;BME280;12935;50.782;6.074;2023-01-29T11:57:27;100626.41;;;2.04;100.00
24858;BME280;12935;50.782;6.074;2023-01-29T11:59:57;100611.56;;;2.24;100.00
24858;BME280;12935;50.782;6.074;2023-01-29T12:02:31;100605.69;;;2.22;100.00
24858;BME280;12935;50.782;6.074;2023-01-29T12:05:04;100590.78;;;2.25;100.00
24858;BME280;12935;50.782;6.074;2023-01-29T12:07:31;100588.47;;;2.32;100.00
24858;BME280;12935;50.782;6.074;2023-01-29T12:09:57;100586.25;;;2.34;100.00
24858;BME280;12935;50.782;6.074;2023-01-29T12:12:40;100585.47;;;2.42;100.00
24858;BME280;12935;50.782;6.074;2023-01-29T12:15:18;100575.47;;;2.42;100.00
24858;BME280;12935;50.782;6.074;2023-01-29T12:18:12;100565.53;;;2.52;100.00
24858;BME280;12935;50.782;6.074;2023-01-29T12:20:44;100560.75;;;2.49;100.00
24858;BME280;12935;50.782;6.074;2023-01-29T12:25:52;100541.66;;;2.36;100.00
24858;BME280;12935;50.782;6.074;2023-01-29T12:28:38;100530.88;;;2.36;100.00
24858;BME280;12935;50.782;6.074;2023-01-29T12:34:30;100506.94;;;2.43;100.00
24858;BME280;12935;50.782;6.074;2023-01-29T12:37:19;100490.31;;;2.50;100.00
24858;BME280;12935;50.782;6.074;2023-01-29T12:39:47;100488.72;;;2.58;100.00
24858;BME280;12935;50.782;6.074;2023-01-29T12:42:17;100488.88;;;2.70;100.00
24858;BME280;12935;50.782;6.074;2023-01-29T12:44:46;100473.66;;;2.74;100.00
24858;BME280;12935;50.782;6.074;2023-01-29T12:47:23;100474.13;;;2.76;100.00
24858;BME280;12935;50.782;6.074;2023-01-29T12:49:53;100479.03;;;2.91;100.00
24858;BME280;12935;50.782;6.074;2023-01-29T12:52:43;100462.34;;;3.06;100.00
24858;BME280;12935;50.782;6.074;2023-01-29T12:55:19;100463.63;;;3.09;100.00
24858;BME280;12935;50.782;6.074;2023-01-29T12:57:52;100459.19;;;3.04;100.00
24858;BME280;12935;50.782;6.074;2023-01-29T13:00:23;100459.19;;;2.61;100.00
24858;BME280;12935;50.782;6.074;2023-01-29T13:03:05;100449.84;;;2.76;100.00
24858;BME280;12935;50.782;6.074;2023-01-29T13:05:37;100448.56;;;2.91;100.00
24858;BME280;12935;50.782;6.074;2023-01-29T13:08:09;100446.16;;;2.89;100.00
24858;BME280;12935;50.782;6.074;2023-01-29T13:10:39;100439.53;;;2.78;100.00
24858;BME280;12935;50.782;6.074;2023-01-29T13:13:14;100446.50;;;2.70;100.00
24858;BME280;12935;50.782;6.074;2023-01-29T13:15:43;100437.31;;;2.80;100.00
24858;BME280;12935;50.782;6.074;2023-01-29T13:18:22;100435.53;;;2.58;100.00
24858;BME280;12935;50.782;6.074;2023-01-29T13:20:55;100421.91;;;2.80;100.00
24858;BME280;12935;50.782;6.074;2023-01-29T13:23:24;100424.59;;;2.98;100.00
24858;BME280;12935;50.782;6.074;2023-01-29T13:25:52;100422.16;;;3.22;100.00
24858;BME280;12935;50.782;6.074;2023-01-29T13:28:21;100417.22;;;3.24;100.00
24858;BME280;12935;50.782;6.074;2023-01-29T13:31:09;100419.28;;;3.27;100.00
24858;BME280;12935;50.782;6.074;2023-01-29T13:33:36;100417.41;;;3.10;100.00
24858;BME280;12935;50.782;6.074;2023-01-29T13:36:02;100419.97;;;2.98;100.00
24858;BME280;12935;50.782;6.074;2023-01-29T13:38:30;100412.34;;;2.92;100.00
24858;BME280;12935;50.782;6.074;2023-01-29T13:41:05;100408.00;;;3.16;100.00
24858;BME280;12935;50.782;6.074;2023-01-29T13:43:37;100396.25;;;3.30;100.00
24858;BME280;12935;50.782;6.074;2023-01-29T13:46:13;100397.78;;;3.39;100.00
24858;BME280;12935;50.782;6.074;2023-01-29T13:48:44;100390.16;;;3.41;100.00
24858;BME280;12935;50.782;6.074;2023-01-29T13:51:16;100384.13;;;3.44;100.00
24858;BME280;12935;50.782;6.074;2023-01-29T13:53:54;100375.88;;;3.32;100.00
24858;BME280;12935;50.782;6.074;2023-01-29T13:59:04;100366.00;;;3.45;100.00
24858;BME280;12935;50.782;6.074;2023-01-29T14:06:53;100389.63;;;3.10;100.00
24858;BME280;12935;50.782;6.074;2023-01-29T14:17:13;100400.94;;;2.43;100.00
24858;BME280;12935;50.782;6.074;2023-01-29T14:19:49;100403.97;;;2.41;100.00
24858;BME280;12935;50.782;6.074;2023-01-29T14:22:23;100403.97;;;2.50;100.00
24858;BME280;12935;50.782;6.074;2023-01-29T14:24:56;100401.69;;;2.09;100.00
24858;BME280;12935;50.782;6.074;2023-01-29T14:27:24;100396.69;;;2.33;100.00